createdAt,value
2022-10-11T00:00:26.244Z,9.93
2022-10-11T00:03:28.497Z,10.06
2022-10-11T00:06:30.841Z,9.96
2022-10-11T00:09:33.116Z,9.89
2022-10-11T00:12:36.422Z,9.77
2022-10-11T00:15:39.877Z,9.57
2022-10-11T00:18:42.689Z,9.47
2022-10-11T00:21:45.189Z,9.49
2022-10-11T00:24:47.363Z,9.62
2022-10-11T00:27:49.532Z,9.51
2022-10-11T00:30:51.726Z,9.34
2022-10-11T00:33:54.609Z,9.32
2022-10-11T00:36:57.155Z,9.35
2022-10-11T00:39:59.481Z,9.35
2022-10-11T00:43:01.918Z,9.27
2022-10-11T00:46:06.563Z,9.30
2022-10-11T00:49:32.972Z,9.37
2022-10-11T00:52:40.463Z,9.20
2022-10-11T00:55:51.883Z,9.38
2022-10-11T00:58:56.297Z,9.54
2022-10-11T01:01:58.524Z,9.45
2022-10-11T01:05:27.767Z,9.32
2022-10-11T01:08:24.562Z,9.34
2022-10-11T01:11:29.860Z,9.14
2022-10-11T01:14:36.615Z,9.16
2022-10-11T01:17:56.675Z,9.26
2022-10-11T01:21:16.756Z,9.37
2022-10-11T01:24:42.364Z,9.38
2022-10-11T01:27:48.500Z,9.44
2022-10-11T01:30:51.871Z,9.28
2022-10-11T01:34:08.043Z,9.08
2022-10-11T01:37:31.336Z,8.97
2022-10-11T01:40:39.280Z,9.00
2022-10-11T01:43:42.673Z,9.11
2022-10-11T01:46:44.873Z,9.27
2022-10-11T01:49:53.558Z,9.23
2022-10-11T01:52:59.919Z,9.06
2022-10-11T01:56:20.754Z,9.14
2022-10-11T02:00:03.911Z,9.14
2022-10-11T02:03:23.387Z,9.26
2022-10-11T02:06:39.918Z,9.27
2022-10-11T02:09:48.135Z,9.17
2022-10-11T02:12:59.515Z,9.08
2022-10-11T02:16:06.705Z,9.04
2022-10-11T02:19:19.756Z,9.16
2022-10-11T02:22:35.623Z,9.18
2022-10-11T02:25:37.905Z,9.34
2022-10-11T02:28:42.585Z,9.30
2022-10-11T02:31:45.671Z,9.24
2022-10-11T02:34:53.603Z,9.28
2022-10-11T02:38:01.975Z,9.28
2022-10-11T02:41:27.327Z,9.32
2022-10-11T02:44:36.947Z,9.04
2022-10-11T02:47:40.768Z,8.93
2022-10-11T02:50:43.540Z,8.72
2022-10-11T02:53:46.591Z,8.56
2022-10-11T02:56:48.760Z,8.59
2022-10-11T02:59:50.921Z,8.90
2022-10-11T03:02:53.145Z,8.96
2022-10-11T03:06:00.283Z,8.75
2022-10-11T03:09:02.472Z,8.81
2022-10-11T03:12:04.885Z,8.86
2022-10-11T03:15:07.602Z,8.62
2022-10-11T03:18:09.776Z,8.60
2022-10-11T03:21:11.961Z,8.93
2022-10-11T03:24:14.137Z,8.96
2022-10-11T03:27:16.458Z,8.97
2022-10-11T03:30:20.149Z,8.76
2022-10-11T03:33:22.412Z,8.69
2022-10-11T03:36:24.572Z,8.49
2022-10-11T03:39:26.751Z,8.77
2022-10-11T03:42:29.723Z,8.96
2022-10-11T03:45:31.896Z,8.91
2022-10-11T03:48:34.239Z,8.67
2022-10-11T03:51:36.537Z,8.57
2022-10-11T03:54:38.752Z,8.67
2022-10-11T03:57:41.530Z,8.62
2022-10-11T04:00:43.709Z,8.73
2022-10-11T04:03:45.890Z,8.66
2022-10-11T04:06:48.095Z,8.48
2022-10-11T04:09:53.650Z,8.52
2022-10-11T04:12:55.802Z,8.53
2022-10-11T04:15:58.055Z,8.46
2022-10-11T04:19:00.211Z,8.65
2022-10-11T04:22:02.677Z,8.65
2022-10-11T04:25:06.324Z,8.60
2022-10-11T04:28:09.264Z,8.63
2022-10-11T04:31:11.485Z,8.63
2022-10-11T04:34:14.048Z,8.59
2022-10-11T04:37:16.232Z,8.65
2022-10-11T04:40:18.498Z,8.67
2022-10-11T04:43:20.667Z,8.81
2022-10-11T04:46:23.237Z,8.77
2022-10-11T04:49:25.472Z,8.76
2022-10-11T04:52:27.749Z,8.76
2022-10-11T04:55:29.966Z,8.69
2022-10-11T04:58:34.464Z,8.65
2022-10-11T05:01:36.858Z,8.67
2022-10-11T05:04:39.067Z,8.63
2022-10-11T05:07:41.221Z,8.67
2022-10-11T05:10:43.490Z,8.66
2022-10-11T05:13:46.314Z,8.75
2022-10-11T05:16:48.543Z,8.81
2022-10-11T05:19:50.687Z,8.90
2022-10-11T05:22:52.861Z,9.04
2022-10-11T05:25:55.167Z,8.96
2022-10-11T05:28:57.476Z,9.08
2022-10-11T05:31:59.727Z,9.10
2022-10-11T05:35:01.965Z,9.10
2022-10-11T05:38:04.151Z,9.07
2022-10-11T05:41:09.069Z,9.13
2022-10-11T05:44:11.370Z,9.03
2022-10-11T05:47:13.652Z,9.00
2022-10-11T05:50:18.727Z,9.06
2022-10-11T05:53:26.065Z,9.17
2022-10-11T05:56:28.294Z,9.23
2022-10-11T05:59:35.620Z,9.31
2022-10-11T06:02:37.854Z,9.49
2022-10-11T06:05:44.021Z,9.55
2022-10-11T06:08:47.118Z,9.58
2022-10-11T06:11:52.037Z,9.78
2022-10-11T06:14:57.505Z,9.99
2022-10-11T06:18:04.097Z,10.20
2022-10-11T06:21:07.624Z,10.37
2022-10-11T06:24:15.542Z,10.60
2022-10-11T06:27:20.906Z,10.61
2022-10-11T06:30:26.493Z,10.71
2022-10-11T06:33:28.995Z,10.84
2022-10-11T06:36:35.482Z,11.19
2022-10-11T06:39:37.960Z,11.43
2022-10-11T06:42:50.606Z,11.56
2022-10-11T06:45:53.241Z,11.40
2022-10-11T06:48:56.609Z,11.49
2022-10-11T06:52:06.129Z,11.80
2022-10-11T06:55:13.823Z,11.93
2022-10-11T06:58:16.483Z,11.98
2022-10-11T07:01:22.585Z,12.30
2022-10-11T07:04:27.551Z,12.52
2022-10-11T07:07:36.567Z,12.96
2022-10-11T07:10:41.951Z,13.04
2022-10-11T07:13:50.424Z,13.27
2022-10-11T07:16:52.975Z,13.39
2022-10-11T07:19:57.931Z,13.48
2022-10-11T07:23:01.127Z,13.42
2022-10-11T07:26:04.627Z,13.65
2022-10-11T07:29:08.992Z,13.78
2022-10-11T07:32:27.524Z,14.06
2022-10-11T07:35:29.831Z,14.19
2022-10-11T07:38:34.784Z,14.37
2022-10-11T07:41:43.171Z,14.62
2022-10-11T07:44:50.029Z,14.67
2022-10-11T07:47:52.309Z,15.06
2022-10-11T07:51:08.422Z,15.17
2022-10-11T07:54:10.848Z,15.18
2022-10-11T07:57:18.784Z,15.39
2022-10-11T08:00:25.614Z,15.63
2022-10-11T08:03:27.807Z,15.61
2022-10-11T08:06:32.890Z,15.70
2022-10-11T08:09:35.264Z,15.88
2022-10-11T08:12:38.911Z,15.82
2022-10-11T08:15:47.886Z,15.97
2022-10-11T08:18:55.564Z,16.07
2022-10-11T08:21:58.096Z,16.19
2022-10-11T08:25:00.370Z,16.30
2022-10-11T08:28:02.640Z,16.34
2022-10-11T08:31:05.482Z,17.40
2022-10-11T08:34:10.239Z,18.45
2022-10-11T08:37:15.623Z,19.98
2022-10-11T08:40:21.060Z,20.98
2022-10-11T08:43:48.196Z,20.97
2022-10-11T08:47:00.624Z,20.88
2022-10-11T08:50:06.952Z,21.10
2022-10-11T08:53:28.589Z,22.13
2022-10-11T08:56:35.069Z,23.18
2022-10-11T08:59:54.065Z,23.83
2022-10-11T09:03:28.477Z,22.40
2022-10-11T09:07:04.772Z,22.95
2022-10-11T09:10:38.268Z,22.30
2022-10-11T09:13:54.625Z,21.28
2022-10-11T09:17:42.349Z,20.93
2022-10-11T09:20:53.672Z,20.36
2022-10-11T09:24:12.124Z,20.19
2022-10-11T09:27:33.076Z,20.40
2022-10-11T09:30:49.308Z,20.35
2022-10-11T09:33:52.573Z,20.22
2022-10-11T09:37:22.894Z,20.09
2022-10-11T09:40:58.908Z,20.11
2022-10-11T09:44:06.643Z,20.13
2022-10-11T09:47:16.478Z,19.91
2022-10-11T09:50:32.572Z,19.88
2022-10-11T09:53:57.714Z,19.94
2022-10-11T09:57:00.131Z,19.96
2022-10-11T10:00:20.680Z,20.36
2022-10-11T10:03:38.158Z,20.39
2022-10-11T10:06:41.096Z,20.66
2022-10-11T10:09:45.084Z,21.44
2022-10-11T10:13:01.991Z,22.02
2022-10-11T10:16:05.649Z,23.29
2022-10-11T10:19:18.861Z,24.89
2022-10-11T10:22:27.321Z,25.63
2022-10-11T10:25:38.459Z,25.80
2022-10-11T10:28:57.139Z,25.80
2022-10-11T10:32:14.262Z,26.15
2022-10-11T10:35:41.470Z,25.70
2022-10-11T10:38:53.188Z,25.80
2022-10-11T10:41:58.777Z,26.59
2022-10-11T10:45:01.643Z,27.75
2022-10-11T10:48:15.839Z,28.50
2022-10-11T10:51:29.424Z,29.69
2022-10-11T10:54:55.628Z,30.38
2022-10-11T10:58:16.380Z,31.26
2022-10-11T11:01:25.293Z,30.67
2022-10-11T11:04:35.811Z,31.51
2022-10-11T11:08:03.957Z,32.35
2022-10-11T11:11:24.588Z,33.06
2022-10-11T11:14:29.748Z,32.66
2022-10-11T11:17:41.653Z,33.82
2022-10-11T11:21:01.347Z,33.33
2022-10-11T11:24:49.509Z,33.70
2022-10-11T11:28:28.311Z,34.18
2022-10-11T11:32:10.240Z,34.32
2022-10-11T11:35:22.992Z,34.18
2022-10-11T11:38:29.940Z,32.69
2022-10-11T11:41:43.673Z,33.46
2022-10-11T11:44:50.847Z,34.53
2022-10-11T11:48:04.132Z,35.31
2022-10-11T11:51:13.174Z,35.27
2022-10-11T11:54:15.332Z,34.31
2022-10-11T11:57:23.547Z,34.89
2022-10-11T12:00:53.473Z,35.06
2022-10-11T12:04:07.372Z,35.31
2022-10-11T12:07:17.632Z,35.54
2022-10-11T12:10:31.539Z,35.26
2022-10-11T12:13:39.692Z,34.65
2022-10-11T12:17:15.697Z,35.30
2022-10-11T12:20:31.532Z,34.85
2022-10-11T12:23:44.518Z,35.00
2022-10-11T12:26:49.049Z,35.17
2022-10-11T12:29:51.450Z,35.37
2022-10-11T12:33:06.832Z,34.69
2022-10-11T12:36:38.845Z,34.41
2022-10-11T12:39:55.647Z,33.88
2022-10-11T12:43:15.957Z,33.37
2022-10-11T12:46:50.590Z,34.36
2022-10-11T12:49:52.748Z,34.29
2022-10-11T12:53:25.124Z,29.84
2022-10-11T12:56:39.326Z,29.33
2022-10-11T12:59:45.086Z,30.51
2022-10-11T13:02:48.186Z,31.66
2022-10-11T13:05:53.753Z,32.75
2022-10-11T13:09:07.611Z,33.27
2022-10-11T13:12:16.178Z,33.64
2022-10-11T13:15:22.278Z,34.22
2022-10-11T13:18:26.496Z,34.06
2022-10-11T13:21:38.625Z,34.15
2022-10-11T13:24:43.812Z,34.59
2022-10-11T13:27:47.237Z,34.09
2022-10-11T13:30:59.281Z,34.04
2022-10-11T13:34:01.435Z,33.10
2022-10-11T13:37:04.064Z,32.20
2022-10-11T13:40:06.993Z,32.74
2022-10-11T13:43:09.342Z,32.66
2022-10-11T13:46:23.535Z,33.29
2022-10-11T13:49:37.263Z,32.89
2022-10-11T13:53:00.371Z,31.03
2022-10-11T13:56:06.020Z,28.40
2022-10-11T13:59:18.272Z,27.11
2022-10-11T14:02:23.869Z,28.40
2022-10-11T14:05:35.431Z,29.49
2022-10-11T14:08:41.475Z,29.84
2022-10-11T14:11:43.681Z,29.12
2022-10-11T14:14:47.947Z,26.57
2022-10-11T14:17:53.145Z,25.50
2022-10-11T14:20:55.351Z,24.62
2022-10-11T14:24:05.129Z,23.41
2022-10-11T14:27:11.458Z,23.32
2022-10-11T14:30:27.269Z,24.49
2022-10-11T14:33:30.207Z,25.71
2022-10-11T14:36:32.464Z,26.12
2022-10-11T14:39:34.691Z,24.71
2022-10-11T14:42:36.827Z,23.87
2022-10-11T14:45:39.139Z,23.36
2022-10-11T14:48:55.116Z,22.69
2022-10-11T14:51:59.022Z,22.40
2022-10-11T14:55:01.909Z,22.17
2022-10-11T14:58:06.322Z,21.96
2022-10-11T15:01:15.935Z,21.63
2022-10-11T15:04:18.916Z,21.08
2022-10-11T15:07:21.103Z,20.93
2022-10-11T15:10:27.731Z,21.11
2022-10-11T15:13:29.917Z,21.71
2022-10-11T15:16:32.506Z,21.37
2022-10-11T15:19:36.689Z,20.69
2022-10-11T15:22:38.900Z,20.39
2022-10-11T15:25:41.979Z,19.99
2022-10-11T15:28:44.617Z,19.72
2022-10-11T15:31:46.811Z,19.37
2022-10-11T15:34:49.050Z,19.13
2022-10-11T15:37:56.800Z,18.89
2022-10-11T15:40:59.655Z,18.75
2022-10-11T15:44:01.818Z,18.44
2022-10-11T15:47:04.154Z,18.07
2022-10-11T15:50:39.611Z,17.96
2022-10-11T15:53:42.163Z,18.21
2022-10-11T15:56:44.357Z,18.14
2022-10-11T15:59:46.550Z,17.91
2022-10-11T16:02:50.863Z,18.04
2022-10-11T16:05:54.218Z,17.96
2022-10-11T16:08:56.353Z,17.79
2022-10-11T16:12:02.074Z,17.54
2022-10-11T16:15:05.077Z,17.59
2022-10-11T16:18:08.949Z,17.36
2022-10-11T16:21:15.488Z,17.28
2022-10-11T16:24:17.719Z,17.09
2022-10-11T16:27:19.945Z,16.87
2022-10-11T16:30:22.439Z,16.84
2022-10-11T16:33:25.394Z,16.72
2022-10-11T16:36:36.951Z,16.84
2022-10-11T16:39:40.042Z,16.70
2022-10-11T16:42:42.238Z,16.71
2022-10-11T16:45:44.385Z,16.57
2022-10-11T16:48:46.889Z,16.47
2022-10-11T16:51:50.627Z,16.57
2022-10-11T16:54:52.896Z,16.60
2022-10-11T16:57:55.032Z,16.61
2022-10-11T17:00:57.288Z,16.57
2022-10-11T17:03:59.900Z,16.47
2022-10-11T17:07:02.115Z,16.47
2022-10-11T17:10:05.140Z,16.36
2022-10-11T17:13:07.344Z,16.36
2022-10-11T17:16:09.884Z,16.12
2022-10-11T17:19:13.969Z,16.26
2022-10-11T17:22:18.562Z,16.21
2022-10-11T17:25:21.539Z,16.17
2022-10-11T17:28:23.921Z,16.13
2022-10-11T17:31:27.964Z,16.14
2022-10-11T17:34:30.849Z,16.02
2022-10-11T17:37:34.198Z,15.83
2022-10-11T17:40:36.344Z,15.68
2022-10-11T17:43:38.960Z,15.61
2022-10-11T17:46:41.123Z,15.31
2022-10-11T17:49:43.394Z,15.25
2022-10-11T17:52:45.885Z,15.30
2022-10-11T17:55:53.373Z,15.30
2022-10-11T17:59:03.217Z,15.23
2022-10-11T18:02:05.428Z,15.17
2022-10-11T18:05:08.028Z,15.17
2022-10-11T18:08:11.124Z,15.34
2022-10-11T18:11:17.489Z,15.35
2022-10-11T18:14:19.997Z,15.37
2022-10-11T18:17:22.141Z,15.34
2022-10-11T18:20:24.454Z,15.32
2022-10-11T18:23:27.074Z,15.24
2022-10-11T18:26:30.645Z,15.10
2022-10-11T18:29:33.140Z,15.06
2022-10-11T18:32:35.473Z,15.00
2022-10-11T18:35:37.814Z,14.96
2022-10-11T18:38:43.975Z,15.00
2022-10-11T18:41:46.118Z,15.01
2022-10-11T18:44:48.318Z,15.12
2022-10-11T18:47:51.000Z,15.17
2022-10-11T18:51:09.427Z,15.21
2022-10-11T18:54:15.357Z,15.24
2022-10-11T18:57:20.752Z,15.21
2022-10-11T19:00:40.304Z,15.12
2022-10-11T19:03:45.146Z,15.06
2022-10-11T19:06:49.121Z,15.18
2022-10-11T19:09:51.471Z,15.12
2022-10-11T19:12:53.614Z,14.93
2022-10-11T19:15:55.811Z,14.72
2022-10-11T19:18:58.577Z,14.86
2022-10-11T19:22:03.247Z,14.81
2022-10-11T19:25:06.043Z,14.56
2022-10-11T19:28:11.310Z,14.15
2022-10-11T19:31:17.110Z,14.12
2022-10-11T19:34:20.096Z,14.16
2022-10-11T19:37:22.327Z,14.01
2022-10-11T19:40:24.965Z,13.84
2022-10-11T19:43:27.630Z,13.78
2022-10-11T19:46:50.435Z,13.63
2022-10-11T19:49:52.080Z,13.68
2022-10-11T19:52:54.316Z,13.65
2022-10-11T19:56:02.961Z,13.55
2022-10-11T19:59:08.713Z,13.53
2022-10-11T20:02:12.859Z,13.61
2022-10-11T20:05:15.363Z,13.64
2022-10-11T20:08:17.533Z,13.61
2022-10-11T20:11:20.876Z,13.51
2022-10-11T20:14:23.070Z,13.51
2022-10-11T20:17:45.376Z,13.46
2022-10-11T20:20:54.634Z,13.46
2022-10-11T20:24:02.537Z,13.26
2022-10-11T20:27:05.565Z,13.34
2022-10-11T20:30:08.254Z,13.23
2022-10-11T20:33:10.462Z,13.27
2022-10-11T20:36:18.489Z,13.19
2022-10-11T20:39:20.695Z,13.16
2022-10-11T20:42:27.598Z,13.13
2022-10-11T20:45:31.791Z,13.13
2022-10-11T20:48:36.359Z,13.16
2022-10-11T20:51:41.422Z,13.00
2022-10-11T20:54:43.676Z,13.00
2022-10-11T20:57:45.823Z,13.02
2022-10-11T21:00:48.588Z,12.86
2022-10-11T21:03:50.719Z,12.81
2022-10-11T21:06:52.907Z,12.88
2022-10-11T21:09:55.040Z,12.95
2022-10-11T21:12:57.931Z,12.83
2022-10-11T21:16:14.858Z,12.75
2022-10-11T21:19:17.126Z,12.71
2022-10-11T21:22:19.664Z,12.66
2022-10-11T21:25:21.869Z,12.82
2022-10-11T21:28:24.025Z,12.68
2022-10-11T21:31:31.056Z,12.72
2022-10-11T21:34:35.840Z,12.69
2022-10-11T21:37:38.049Z,12.64
2022-10-11T21:40:40.238Z,12.71
2022-10-11T21:43:42.527Z,12.69
2022-10-11T21:50:08.871Z,12.89
2022-10-11T21:53:11.261Z,13.00
2022-10-11T21:56:13.515Z,12.69
2022-10-11T21:59:15.825Z,12.76
2022-10-11T22:02:18.101Z,12.95
2022-10-11T22:05:20.304Z,13.03
2022-10-11T22:08:22.974Z,13.27
2022-10-11T22:11:25.376Z,12.96
2022-10-11T22:14:28.420Z,12.83
2022-10-11T22:17:30.558Z,12.75
2022-10-11T22:20:33.459Z,12.88
2022-10-11T22:23:36.095Z,13.06
2022-10-11T22:26:38.363Z,12.99
2022-10-11T22:29:40.498Z,13.04
2022-10-11T22:32:42.688Z,12.89
2022-10-11T22:35:44.832Z,12.89
2022-10-11T22:38:47.233Z,12.92
2022-10-11T22:41:49.417Z,12.99
2022-10-11T22:44:51.605Z,13.14
2022-10-11T22:47:53.788Z,13.26
2022-10-11T22:50:56.044Z,13.40
2022-10-11T22:53:58.191Z,13.54
2022-10-11T22:57:00.396Z,13.57
2022-10-11T23:00:02.566Z,13.61
2022-10-11T23:03:07.103Z,13.57
2022-10-11T23:06:10.891Z,13.40
2022-10-11T23:09:13.144Z,13.44
2022-10-11T23:12:15.319Z,13.44
2022-10-11T23:15:17.736Z,13.44
2022-10-11T23:18:19.895Z,13.24
2022-10-11T23:21:22.240Z,13.12
2022-10-11T23:24:24.423Z,13.27
2022-10-11T23:27:28.205Z,13.47
2022-10-11T23:30:30.684Z,13.44
2022-10-11T23:33:32.951Z,13.51
2022-10-11T23:36:35.359Z,13.55
2022-10-11T23:39:37.595Z,13.55
2022-10-11T23:42:46.014Z,13.67
2022-10-11T23:45:48.251Z,13.67
2022-10-11T23:48:50.625Z,13.68
2022-10-11T23:51:52.824Z,13.55
2022-10-11T23:54:56.180Z,13.42
2022-10-11T23:57:58.392Z,13.57
